Flight Track Log - Related Links

Times and Time Zones

All times are in EDT time to prevent confusion due to time zone crossing. See the N75AW flight status page for this flight to view local times or setup timezone preferences in your user account.

Time Position Orientation Groundspeed Altitude Reporting Facility
EDT Latitude Longitude Course Direction KTS MPH feet Rate Location/Type
Thu 06:50:22 PM 35.0667 -89.9833 248° West 156 180 800  Level KMEM
Thu 06:51:12 PM 35.0500 -90.0333 248° West 172 198 2,400 2,017 Climbing KMEM
Thu 06:52:18 PM 35.0500 -90.1000 270° West 176 203 4,700 1,951 Climbing KMEM
Thu 06:53:15 PM 35.0000 -90.1000 180° South 188 216 6,400 1,850 Climbing KMEM
Thu 06:54:18 PM 34.9500 -90.0833 165° South 180 207 8,400 1,897 Climbing KMEM
Thu 06:55:12 PM 34.9167 -90.0833 180° South 171 197 10,100 1,767 Climbing KMEM
Thu 06:56:44 PM 34.8381 -90.0736 174° South 167 192 12,700 1,579 Climbing Memphis Center
Thu 06:57:44 PM 34.7900 -90.0789 185° South 167 192 14,100 700 Climbing Memphis Center
Thu 06:58:44 PM 34.7275 -90.0842 184° South 201 231 14,100  Level Memphis Center
Thu 06:59:44 PM 34.6567 -90.0894 184° South 244 281 14,100 200 Level Memphis Center
Thu 07:00:44 PM 34.5875 -90.0619 162° South 255 293 14,500 1,100 Climbing Memphis Center
Thu 07:01:44 PM 34.5478 -89.9967 126° Southeast 240 276 16,300 1,650 Climbing Memphis Center
Thu 07:02:44 PM 34.5142 -89.9336 123° Southeast 222 255 17,800 1,450 Climbing Memphis Center
Thu 07:03:44 PM 34.4786 -89.8733 126° Southeast 222 255 19,200 1,300 Climbing Memphis Center
Thu 07:04:44 PM 34.4406 -89.8131 127° Southeast 222 255 20,400 1,100 Climbing Memphis Center
Thu 07:05:44 PM 34.4028 -89.7481 125° Southeast 227 261 21,400 1,100 Climbing Memphis Center
Thu 07:06:44 PM 34.3650 -89.6853 126° Southeast 233 268 22,600 850 Climbing Memphis Center
Thu 07:07:44 PM 34.3314 -89.6328 128° Southeast 227 261 23,100 250 Climbing Memphis Center
Thu 07:08:44 PM 34.2892 -89.5628 126° Southeast 241 277 23,100  Level Memphis Center
Thu 07:09:44 PM 34.2447 -89.4928 128° Southeast 259 298 23,100  Level Memphis Center
Thu 07:10:37 PM 34.2025 -89.4256 127° Southeast 277 319 23,100  Level Memphis Center
Thu 07:11:37 PM 34.1539 -89.3431 125° Southeast 282 325 23,100  Level Memphis Center
Thu 07:12:38 PM 34.1053 -89.2658 127° Southeast 285 328 23,100  Level Memphis Center
Thu 07:13:39 PM 34.0586 -89.1889 126° Southeast 288 331 23,100  Level Memphis Center
Thu 07:14:39 PM 34.0100 -89.1117 127° Southeast 290 334 23,100  Level Memphis Center
Thu 07:15:40 PM 33.9589 -89.0275 126° Southeast 292 336 23,100  Level Memphis Center
Thu 07:16:40 PM 33.9100 -88.9506 127° Southeast 294 338 23,100  Level Memphis Center
Thu 07:17:41 PM 33.8611 -88.8714 127° Southeast 294 338 23,100  Level Memphis Center
Thu 07:18:44 PM 33.8081 -88.7872 127° Southeast 294 338 23,100  Level Memphis Center
Thu 07:19:42 PM 33.7611 -88.7106 126° Southeast 293 337 23,100  Level Memphis Center
Thu 07:20:43 PM 33.7139 -88.6317 126° Southeast 291 335 23,100  Level Memphis Center
Thu 07:21:44 PM 33.6647 -88.5478 125° Southeast 294 338 23,100  Level Memphis Center
Thu 07:22:44 PM 33.6281 -88.4636 118° Southeast 289 333 23,100  Level Memphis Center
Thu 07:23:44 PM 33.5914 -88.3797 118° Southeast 284 327 23,100  Level Memphis Center
Thu 07:24:57 PM 33.5333 -88.2889 127° Southeast 282 325 23,100 -45 Level Memphis Center
Thu 07:25:58 PM 33.4842 -88.2153 129° Southeast 283 326 23,000 -49 Descending Memphis Center
Thu 07:26:59 PM 33.4411 -88.1417 125° Southeast 279 321 23,000 50 Level Memphis Center
Thu 07:27:59 PM 33.4083 -88.0553 114° Southeast 277 319 23,100 31 Climbing Memphis Center
Thu 07:30:12 PM 33.3272 -87.8800 119° Southeast 290 334 23,100  Level Atlanta Center
Thu 07:31:12 PM 33.2753 -87.8081 131° Southeast 285 328 23,100  Level Atlanta Center
Thu 07:32:12 PM 33.2253 -87.7339 129° Southeast 285 328 23,100  Level Atlanta Center
Thu 07:33:13 PM 33.1733 -87.6622 131° Southeast 291 335 23,100  Level Atlanta Center
Thu 07:34:12 PM 33.1211 -87.5856 129° Southeast 291 335 23,100  Level Atlanta Center
Thu 07:35:12 PM 33.0711 -87.5117 129° Southeast 291 335 23,100  Level Atlanta Center
Thu 07:36:12 PM 33.0189 -87.4428 132° Southeast 291 335 23,100  Level Atlanta Center
Thu 07:37:12 PM 32.9606 -87.3586 130° Southeast 291 335 23,100  Level Atlanta Center
Thu 07:38:12 PM 32.9039 -87.2922 135° Southeast 291 335 23,100  Level Atlanta Center
Thu 07:39:12 PM 32.8472 -87.2208 133° Southeast 291 335 23,100  Level Atlanta Center
Thu 07:40:12 PM 32.7950 -87.1475 130° Southeast 291 335 23,100  Level Atlanta Center
Thu 07:41:12 PM 32.7361 -87.0786 135° Southeast 296 341 23,100  Level Atlanta Center
Thu 07:42:12 PM 32.6794 -87.0050 132° Southeast 301 346 23,100  Level Atlanta Center
Thu 07:43:12 PM 32.6228 -86.9317 133° Southeast 301 346 23,100  Level Atlanta Center
Thu 07:44:12 PM 32.5681 -86.8608 133° Southeast 301 346 23,100  Level Atlanta Center
Thu 07:45:12 PM 32.5111 -86.7900 134° Southeast 301 346 23,100  Level Atlanta Center
Thu 07:46:12 PM 32.4667 -86.7322 132° Southeast 301 346 23,100  Level Atlanta Center
Thu 07:47:12 PM 32.4056 -86.6539 133° Southeast 287 330 23,100  Level Atlanta Center
Thu 07:48:12 PM 32.3508 -86.5836 133° Southeast 287 330 23,100  Level Atlanta Center
Thu 07:49:12 PM 32.2958 -86.5156 134° Southeast 281 323 23,100  Level Atlanta Center
Thu 07:50:12 PM 32.2428 -86.4478 133° Southeast 275 316 23,100  Level Atlanta Center
Thu 07:51:12 PM 32.1836 -86.3775 135° Southeast 281 323 23,100  Level Atlanta Center
Thu 07:52:12 PM 32.1347 -86.3150 133° Southeast 287 330 23,100  Level Atlanta Center
Thu 07:53:12 PM 32.0797 -86.2450 133° Southeast 292 336 23,100  Level Atlanta Center
Thu 07:54:58 PM 31.9833 -86.1256 134° Southeast 314 361 23,100  Level Jacksonville Center
Thu 07:55:57 PM 31.9286 -86.0575 133° Southeast 302 348 23,100  Level Jacksonville Center
Thu 07:56:57 PM 31.8739 -85.9897 134° Southeast 296 341 23,100  Level Jacksonville Center
Thu 07:57:58 PM 31.8194 -85.9194 132° Southeast 291 335 23,100  Level Jacksonville Center
Thu 07:58:57 PM 31.7644 -85.8542 135° Southeast 285 328 23,100  Level Jacksonville Center
Thu 07:59:57 PM 31.7119 -85.7839 131° Southeast 285 328 23,100  Level Jacksonville Center
Thu 08:00:57 PM 31.6589 -85.7189 134° Southeast 280 322 23,100  Level Jacksonville Center
Thu 08:01:58 PM 31.6061 -85.6514 133° Southeast 280 322 23,100  Level Jacksonville Center
Thu 08:02:57 PM 31.5514 -85.5864 135° Southeast 280 322 23,100  Level Jacksonville Center
Thu 08:03:58 PM 31.4983 -85.5217 134° Southeast 275 316 23,100  Level Jacksonville Center
Thu 08:04:58 PM 31.4433 -85.4542 134° Southeast 275 316 23,100  Level Jacksonville Center
Thu 08:05:58 PM 31.3925 -85.3897 133° Southeast 275 316 23,100  Level Jacksonville Center
Thu 08:06:57 PM 31.3353 -85.3175 133° Southeast 275 316 23,100  Level Jacksonville Center
Thu 08:07:58 PM 31.2822 -85.2531 134° Southeast 275 316 23,100  Level Jacksonville Center
Thu 08:08:58 PM 31.2269 -85.1908 136° Southeast 275 316 23,100  Level Jacksonville Center
Thu 08:09:58 PM 31.1761 -85.1264 133° Southeast 275 316 23,100  Level Jacksonville Center
Thu 08:10:58 PM 31.1292 -85.0672 133° Southeast 275 316 23,100  Level Jacksonville Center
Thu 08:11:58 PM 31.0717 -84.9956 133° Southeast 275 316 23,100  Level Jacksonville Center
Thu 08:12:58 PM 31.0186 -84.9289 133° Southeast 275 316 23,100  Level Jacksonville Center
Thu 08:13:57 PM 30.9714 -84.8769 137° Southeast 275 316 23,100  Level Jacksonville Center
Thu 08:14:58 PM 30.9181 -84.8103 133° Southeast 270 311 23,100  Level Jacksonville Center
Thu 08:15:58 PM 30.8628 -84.7464 135° Southeast 276 318 23,100  Level Jacksonville Center
Thu 08:16:58 PM 30.8114 -84.6800 132° Southeast 276 318 23,100  Level Jacksonville Center
Thu 08:17:57 PM 30.7581 -84.6161 134° Southeast 270 311 23,100  Level Jacksonville Center
Thu 08:18:58 PM 30.7025 -84.5525 135° Southeast 276 318 23,100  Level Jacksonville Center
Thu 08:19:58 PM 30.6492 -84.4886 134° Southeast 276 318 23,100  Level Jacksonville Center
Thu 08:20:57 PM 30.5975 -84.4250 133° Southeast 276 318 23,100  Level Jacksonville Center
Thu 08:21:57 PM 30.5419 -84.3614 135° Southeast 276 318 23,100  Level Jacksonville Center
Thu 08:22:58 PM 30.4756 -84.3194 151° Southeast 271 312 23,100  Level Jacksonville Center
Thu 08:23:58 PM 30.4092 -84.2800 153° Southeast 271 312 23,100  Level Jacksonville Center
Thu 08:24:58 PM 30.3408 -84.2333 149° Southeast 276 318 23,100  Level Jacksonville Center
Thu 08:25:58 PM 30.2725 -84.1889 151° Southeast 276 318 23,100  Level Jacksonville Center
Thu 08:26:57 PM 30.2019 -84.1422 150° Southeast 276 318 23,100  Level Jacksonville Center
Thu 08:27:57 PM 30.1314 -84.1006 153° Southeast 276 318 23,100  Level Jacksonville Center
Thu 08:28:57 PM 30.0650 -84.0542 149° Southeast 276 318 23,100  Level Jacksonville Center
Thu 08:29:58 PM 29.9964 -84.0103 151° Southeast 276 318 23,100  Level Jacksonville Center
Thu 08:30:57 PM 29.9281 -83.9639 150° Southeast 281 323 23,100  Level Jacksonville Center
Thu 08:31:57 PM 29.8594 -83.9225 152° Southeast 281 323 23,100  Level Jacksonville Center
Thu 08:32:57 PM 29.7908 -83.8786 151° Southeast 281 323 23,100  Level Jacksonville Center
Thu 08:33:57 PM 29.7203 -83.8347 152° Southeast 281 323 23,100  Level Jacksonville Center
Thu 08:34:58 PM 29.6536 -83.7889 149° Southeast 281 323 23,100  Level Jacksonville Center
Thu 08:35:57 PM 29.5853 -83.7453 151° Southeast 281 323 23,100  Level Jacksonville Center
Thu 08:36:58 PM 29.5167 -83.7017 151° Southeast 281 323 23,100 -50 Level Jacksonville Center
Thu 08:37:58 PM 29.4478 -83.6606 153° Southeast 281 323 23,000  Descending Jacksonville Center
Thu 08:38:58 PM 29.3814 -83.6147 149° Southeast 281 323 23,100 50 Climbing Jacksonville Center
Thu 08:39:57 PM 29.3128 -83.5714 151° Southeast 281 323 23,100 -50 Level Jacksonville Center
Thu 08:40:58 PM 29.2442 -83.5281 151° Southeast 286 329 23,000  Descending Jacksonville Center
Thu 08:41:58 PM 29.1775 -83.4847 150° Southeast 286 329 23,100 50 Climbing Jacksonville Center
Thu 08:42:57 PM 29.1089 -83.4417 151° Southeast 286 329 23,100  Level Jacksonville Center
Thu 08:43:57 PM 29.0422 -83.3983 150° Southeast 286 329 23,100  Level Jacksonville Center
Thu 08:44:58 PM 28.9733 -83.3578 153° Southeast 286 329 23,100  Level Jacksonville Center
Thu 08:45:58 PM 28.9047 -83.3122 150° Southeast 286 329 23,100  Level Jacksonville Center
Thu 08:46:58 PM 28.8403 -83.2694 150° Southeast 281 323 23,100  Level Jacksonville Center
Thu 08:47:58 PM 28.7756 -83.2289 151° Southeast 281 323 23,100 -50 Level Jacksonville Center
Thu 08:48:58 PM 28.7089 -83.1861 151° Southeast 276 318 23,000  Descending Jacksonville Center
Thu 08:49:58 PM 28.6483 -83.1506 153° Southeast 271 312 23,100 50 Climbing Jacksonville Center
Thu 08:50:57 PM 28.5858 -83.1100 150° Southeast 271 312 23,100  Level Jacksonville Center
Thu 08:51:58 PM 28.5192 -83.0675 151° Southeast 266 306 23,100 -50 Level Jacksonville Center
Thu 08:52:58 PM 28.4544 -83.0247 150° Southeast 266 306 23,000  Descending Jacksonville Center
Thu 08:53:58 PM 28.3878 -82.9869 154° Southeast 261 300 23,100 63 Climbing Jacksonville Center
Thu 08:54:34 PM 28.3483 -82.9606 150° Southeast 267 307 23,100 -63 Level Miami Center
Thu 08:55:34 PM 28.2833 -82.9192 151° Southeast 267 307 23,000  Descending Miami Center
Thu 08:56:34 PM 28.2161 -82.8803 153° Southeast 267 307 23,100 50 Climbing Miami Center
Thu 08:57:34 PM 28.1489 -82.8392 152° Southeast 267 307 23,100  Level Miami Center
Thu 08:58:34 PM 28.0819 -82.7956 150° Southeast 272 313 23,100  Level Miami Center
Thu 08:59:34 PM 28.0147 -82.7544 152° Southeast 277 319 23,100  Level Miami Center
Thu 09:00:34 PM 27.9497 -82.7133 151° Southeast 277 319 23,100 -50 Level Miami Center
Thu 09:01:34 PM 27.8803 -82.6794 157° South 277 319 23,000 -100 Descending Miami Center
Thu 09:02:34 PM 27.8058 -82.6614 168° South 264 304 22,900 -650 Descending Miami Center
Thu 09:03:34 PM 27.7253 -82.6433 169° South 288 331 21,700 -1,150 Descending Miami Center
Thu 09:04:34 PM 27.6447 -82.6228 167° South 306 352 20,600 -1,100 Descending Miami Center
Thu 09:05:34 PM 27.5558 -82.5997 167° South 311 358 19,500 -950 Descending Miami Center
Thu 09:06:34 PM 27.4731 -82.5814 169° South 311 358 18,700 -1,000 Descending Miami Center
Thu 09:07:34 PM 27.4008 -82.5639 168° South 311 358 17,500 -1,200 Descending Miami Center
Thu 09:08:34 PM 27.3200 -82.5458 169° South 305 351 16,300 -1,150 Descending Miami Center
Thu 09:09:34 PM 27.2425 -82.5536 185° South 294 338 15,200 -1,100 Descending Miami Center
Thu 09:10:34 PM 27.1631 -82.5592 184° South 289 333 14,100 -1,250 Descending Miami Center
Thu 09:11:34 PM 27.0758 -82.5478 173° South 289 333 12,700 -1,200 Descending Miami Center
Thu 09:12:34 PM 26.9978 -82.5183 161° South 294 338 11,700 -800 Descending Miami Center
Thu 09:13:34 PM 26.9239 -82.4892 161° South 289 333 11,100 -500 Descending Miami Center
Thu 09:14:34 PM 26.8558 -82.4625 161° South 278 320 10,700 -700 Descending Miami Center
Thu 09:15:34 PM 26.7819 -82.4333 161° South 278 320 9,700 -1,000 Descending Miami Center
Thu 09:16:34 PM 26.7100 -82.4067 162° South 278 320 8,700 -1,000 Descending Miami Center
Thu 09:17:34 PM 26.6556 -82.3531 139° Southeast 260 299 7,700 -850 Descending Miami Center
Thu 09:18:34 PM 26.6231 -82.2725 114° Southeast 260 299 7,000 -300 Descending Miami Center
Thu 09:19:34 PM 26.5986 -82.1994 111° Southeast 260 299 7,100  Climbing Miami Center
Thu 09:20:34 PM 26.5700 -82.1264 114° Southeast 255 293 7,000 -350 Descending Miami Center
Thu 09:21:34 PM 26.5219 -82.0708 134° Southeast 249 287 6,400 -700 Descending Miami Center
Thu 09:22:34 PM 26.4675 -82.0172 139° Southeast 249 287 5,600 -800 Descending Miami Center
Thu 09:24:00 PM 26.3799 -81.9499 130° Southeast  Level Estimated
Thu 09:31:00 PM 26.1500 -81.7667 130° Southeast  Level FlightAware Approximate
Thu 09:32:00 PM 26.1524 -81.7756 130° Southeast  Level Estimated
Thu 09:33:00 PM 26.1524 -81.7756 130° Southeast  Level Estimated
Thu 09:34:00 PM 26.1524 -81.7756 130° Southeast  Level Estimated
Thu 09:35:00 PM 26.1524 -81.7756 130° Southeast  Level Estimated
Thu 09:36:00 PM 26.1524 -81.7756 130° Southeast  Level Estimated
Thu 09:37:00 PM 26.1524 -81.7756 130° Southeast  Level Estimated
Thu 09:38:00 PM 26.1524 -81.7756 130° Southeast  Level Estimated
Thu 09:39:00 PM 26.1524 -81.7756 130° Southeast  Level Estimated
Thu 09:40:00 PM 26.1524 -81.7756 130° Southeast  Level Estimated

Login

Don't have an account? Register now (free) for customized features, flight alerts, and more!